createdAt,value
2019-01-25T00:00:47.616Z,32.87
2019-01-25T00:03:16.957Z,33.77
2019-01-25T00:05:45.732Z,32.63
2019-01-25T00:08:15.151Z,35.23
2019-01-25T00:10:44.548Z,32.97
2019-01-25T00:13:13.835Z,34.33
2019-01-25T00:15:43.179Z,36.90
2019-01-25T00:18:12.511Z,35.87
2019-01-25T00:20:41.831Z,35.23
2019-01-25T00:23:10.523Z,34.00
2019-01-25T00:25:39.860Z,37.80
2019-01-25T00:28:09.220Z,37.03
2019-01-25T00:30:38.525Z,38.33
2019-01-25T00:33:07.985Z,36.37
2019-01-25T00:35:37.316Z,37.97
2019-01-25T00:38:06.597Z,38.37
2019-01-25T00:40:35.932Z,37.70
2019-01-25T00:43:05.589Z,38.20
2019-01-25T00:45:34.924Z,36.57
2019-01-25T00:48:04.452Z,35.20
2019-01-25T00:50:33.789Z,35.20
2019-01-25T00:53:03.116Z,35.50
2019-01-25T00:55:32.824Z,34.67
2019-01-25T00:58:03.164Z,34.33
2019-01-25T01:00:32.480Z,31.23
2019-01-25T01:03:02.418Z,31.77
2019-01-25T01:05:31.779Z,33.60
2019-01-25T01:08:01.501Z,36.07
2019-01-25T01:10:30.788Z,33.93
2019-01-25T01:13:00.109Z,35.30
2019-01-25T01:15:29.404Z,34.23
2019-01-25T01:17:58.735Z,29.30
2019-01-25T01:20:28.064Z,31.17
2019-01-25T01:22:57.400Z,29.83
2019-01-25T01:25:26.987Z,31.43
2019-01-25T01:27:56.275Z,28.77
2019-01-25T01:30:25.787Z,31.27
2019-01-25T01:32:55.378Z,32.10
2019-01-25T01:35:24.705Z,32.17
2019-01-25T01:37:54.528Z,32.80
2019-01-25T01:40:25.544Z,29.90
2019-01-25T01:42:54.936Z,28.77
2019-01-25T01:45:24.788Z,30.73
2019-01-25T01:47:56.167Z,32.17
2019-01-25T01:50:25.495Z,27.40
2019-01-25T01:52:54.842Z,26.70
2019-01-25T01:55:23.560Z,24.07
2019-01-25T01:57:52.868Z,26.30
2019-01-25T02:00:27.808Z,26.87
2019-01-25T02:02:57.315Z,26.43
2019-01-25T02:05:26.127Z,22.77
2019-01-25T02:07:56.370Z,25.43
2019-01-25T02:10:29.633Z,25.63
2019-01-25T02:12:58.569Z,25.53
2019-01-25T02:15:27.934Z,25.97
2019-01-25T02:17:57.248Z,24.13
2019-01-25T02:20:29.002Z,26.93
2019-01-25T02:22:58.327Z,25.80
2019-01-25T02:25:28.730Z,27.13
2019-01-25T02:27:58.531Z,27.37
2019-01-25T02:30:28.688Z,27.60
2019-01-25T02:32:57.993Z,29.50
2019-01-25T02:35:27.411Z,26.77
2019-01-25T02:37:56.739Z,28.20
2019-01-25T02:40:26.676Z,27.70
2019-01-25T02:42:55.987Z,28.83
2019-01-25T02:45:25.785Z,29.03
2019-01-25T02:47:55.095Z,29.47
2019-01-25T02:50:25.435Z,28.60
2019-01-25T02:52:54.748Z,29.03
2019-01-25T02:55:24.080Z,28.37
2019-01-25T02:57:53.362Z,29.63
2019-01-25T03:00:25.122Z,32.40
2019-01-25T03:02:55.495Z,32.53
2019-01-25T03:05:26.272Z,31.83
2019-01-25T03:07:56.044Z,31.03
2019-01-25T03:10:29.226Z,29.93
2019-01-25T03:12:56.373Z,32.13
2019-01-25T03:15:27.714Z,29.20
2019-01-25T03:17:57.080Z,33.93
2019-01-25T03:20:26.775Z,30.23
2019-01-25T03:22:56.061Z,30.93
2019-01-25T03:25:26.111Z,29.20
2019-01-25T03:27:55.845Z,31.53
2019-01-25T03:30:26.780Z,33.63
2019-01-25T03:32:56.251Z,34.40
2019-01-25T03:35:27.128Z,31.13
2019-01-25T03:37:56.887Z,32.03
2019-01-25T03:40:27.996Z,31.17
2019-01-25T03:42:57.859Z,32.67
2019-01-25T03:45:28.314Z,32.33
2019-01-25T03:47:58.356Z,32.40
2019-01-25T03:50:29.412Z,31.33
2019-01-25T03:52:59.241Z,32.27
2019-01-25T03:55:28.539Z,29.67
2019-01-25T03:57:57.835Z,31.17
2019-01-25T04:00:29.411Z,30.13
2019-01-25T04:02:59.745Z,32.93
2019-01-25T04:05:28.608Z,28.63
2019-01-25T04:07:57.921Z,32.03
2019-01-25T04:10:28.915Z,31.97
2019-01-25T04:12:58.692Z,29.63
2019-01-25T04:15:30.805Z,30.83
2019-01-25T04:18:00.096Z,31.10
2019-01-25T04:20:30.041Z,32.10
2019-01-25T04:22:59.417Z,32.57
2019-01-25T04:25:47.153Z,28.87
2019-01-25T04:28:16.486Z,28.40
2019-01-25T04:30:45.237Z,27.93
2019-01-25T04:33:14.566Z,31.03
2019-01-25T04:35:43.855Z,27.90
2019-01-25T04:38:12.576Z,29.33
2019-01-25T04:40:41.877Z,31.83
2019-01-25T04:43:11.256Z,30.93
2019-01-25T04:45:39.997Z,29.57
2019-01-25T04:48:15.352Z,30.80
2019-01-25T04:50:44.775Z,30.87
2019-01-25T04:53:14.083Z,31.47
2019-01-25T04:55:43.372Z,30.63
2019-01-25T04:58:17.588Z,31.30
2019-01-25T05:00:47.293Z,30.20
2019-01-25T05:03:17.092Z,31.07
2019-01-25T05:05:45.820Z,32.73
2019-01-25T05:08:18.001Z,33.60
2019-01-25T05:10:46.723Z,30.37
2019-01-25T05:13:16.058Z,33.03
2019-01-25T05:15:45.394Z,29.43
2019-01-25T05:18:15.348Z,33.00
2019-01-25T05:20:44.708Z,29.77
2019-01-25T05:23:14.044Z,30.50
2019-01-25T05:25:43.330Z,32.10
2019-01-25T05:28:22.730Z,30.37
2019-01-25T05:30:52.918Z,30.87
2019-01-25T05:33:22.255Z,34.90
2019-01-25T05:35:51.656Z,31.67
2019-01-25T05:38:20.949Z,33.37
2019-01-25T05:40:50.299Z,30.73
2019-01-25T05:43:19.591Z,32.93
2019-01-25T05:45:48.878Z,32.17
2019-01-25T05:48:17.598Z,29.80
2019-01-25T05:50:46.880Z,30.90
2019-01-25T05:53:15.598Z,29.20
2019-01-25T05:55:44.892Z,31.87
2019-01-25T05:58:14.223Z,30.67
2019-01-25T06:00:43.972Z,31.00
2019-01-25T06:03:15.202Z,32.37
2019-01-25T06:05:44.823Z,30.73
2019-01-25T06:08:43.754Z,32.87
2019-01-25T06:11:11.117Z,28.43
2019-01-25T06:13:42.075Z,27.17
2019-01-25T06:16:11.985Z,30.67
2019-01-25T06:18:41.332Z,29.53
2019-01-25T06:21:10.071Z,28.63
2019-01-25T06:23:39.425Z,30.90
2019-01-25T06:26:08.904Z,28.23
2019-01-25T06:28:38.772Z,28.20
2019-01-25T06:31:07.481Z,27.97
2019-01-25T06:33:36.994Z,28.03
2019-01-25T06:36:08.297Z,27.77
2019-01-25T06:38:38.167Z,28.53
2019-01-25T06:41:08.200Z,28.93
2019-01-25T06:43:37.480Z,30.77
2019-01-25T06:46:07.312Z,29.03
2019-01-25T06:48:36.632Z,30.77
2019-01-25T06:51:06.500Z,29.50
2019-01-25T06:53:35.888Z,29.70
2019-01-25T06:56:05.756Z,31.30
2019-01-25T06:58:47.550Z,32.77
2019-01-25T07:01:34.115Z,30.53
2019-01-25T07:04:03.538Z,33.17
2019-01-25T07:06:32.909Z,32.90
2019-01-25T07:09:02.243Z,33.37
2019-01-25T07:11:31.616Z,35.37
2019-01-25T07:14:00.957Z,34.97
2019-01-25T07:16:30.312Z,34.37
2019-01-25T07:18:59.654Z,38.93
2019-01-25T07:21:29.024Z,39.03
2019-01-25T07:23:58.358Z,35.47
2019-01-25T07:26:27.746Z,36.20
2019-01-25T07:28:57.173Z,35.50
2019-01-25T07:31:26.557Z,37.00
2019-01-25T07:33:56.324Z,36.03
2019-01-25T07:36:25.670Z,34.93
2019-01-25T07:38:55.094Z,35.83
2019-01-25T07:41:23.922Z,35.03
2019-01-25T07:43:53.259Z,37.37
2019-01-25T07:46:22.704Z,36.27
2019-01-25T07:48:52.094Z,36.27
2019-01-25T07:51:21.505Z,37.47
2019-01-25T07:53:50.937Z,38.10
2019-01-25T07:56:19.712Z,32.77
2019-01-25T07:58:49.056Z,33.03
2019-01-25T08:01:18.494Z,38.57
2019-01-25T08:03:47.889Z,34.10
2019-01-25T08:06:17.285Z,36.23
2019-01-25T08:08:46.109Z,38.10
2019-01-25T08:11:15.484Z,35.80
2019-01-25T08:13:45.126Z,38.27
2019-01-25T08:16:15.518Z,40.00
2019-01-25T08:18:44.822Z,39.27
2019-01-25T08:21:14.309Z,37.23
2019-01-25T08:23:43.661Z,40.07
2019-01-25T08:26:12.977Z,36.30
2019-01-25T08:28:41.795Z,37.33
2019-01-25T08:31:11.152Z,37.40
2019-01-25T08:33:40.718Z,36.90
2019-01-25T08:36:11.292Z,41.17
2019-01-25T08:38:41.688Z,42.67
2019-01-25T08:41:11.056Z,37.90
2019-01-25T08:43:40.462Z,42.57
2019-01-25T08:46:09.813Z,39.97
2019-01-25T08:48:39.128Z,39.73
2019-01-25T08:51:08.520Z,43.33
2019-01-25T08:53:38.954Z,43.90
2019-01-25T08:56:08.465Z,42.53
2019-01-25T08:58:37.805Z,43.10
2019-01-25T09:01:07.254Z,41.47
2019-01-25T09:03:37.604Z,40.33
2019-01-25T09:06:07.991Z,41.07
2019-01-25T09:08:37.474Z,39.70
2019-01-25T09:11:07.224Z,40.97
2019-01-25T09:13:36.529Z,42.73
2019-01-25T09:16:05.829Z,42.10
2019-01-25T09:18:35.148Z,40.77
2019-01-25T09:21:04.847Z,41.07
2019-01-25T09:23:34.171Z,40.13
2019-01-25T09:26:03.478Z,41.70
2019-01-25T09:28:32.867Z,39.47
2019-01-25T09:31:02.266Z,38.77
2019-01-25T09:33:31.572Z,42.50
2019-01-25T09:36:00.949Z,42.40
2019-01-25T09:38:30.556Z,41.70
2019-01-25T09:40:59.883Z,37.33
2019-01-25T09:43:29.217Z,41.57
2019-01-25T09:45:58.629Z,39.70
2019-01-25T09:48:27.992Z,40.53
2019-01-25T09:50:57.338Z,39.83
2019-01-25T09:53:26.706Z,39.27
2019-01-25T09:55:56.031Z,41.10
2019-01-25T09:58:25.360Z,36.30
2019-01-25T10:01:01.140Z,36.80
2019-01-25T10:03:30.424Z,38.20
2019-01-25T10:05:59.149Z,39.50
2019-01-25T10:08:28.489Z,39.60
2019-01-25T10:10:57.821Z,38.37
2019-01-25T10:13:26.523Z,37.50
2019-01-25T10:15:55.853Z,40.40
2019-01-25T10:18:25.167Z,41.70
2019-01-25T10:20:54.552Z,42.13
2019-01-25T10:23:23.848Z,40.03
2019-01-25T10:25:53.185Z,40.80
2019-01-25T10:28:23.582Z,41.23
2019-01-25T10:30:52.951Z,39.43
2019-01-25T10:33:22.860Z,37.23
2019-01-25T10:35:52.198Z,39.43
2019-01-25T10:38:21.541Z,38.37
2019-01-25T10:40:50.874Z,38.57
2019-01-25T10:43:20.204Z,37.70
2019-01-25T10:45:49.488Z,38.13
2019-01-25T10:48:18.772Z,39.10
2019-01-25T10:50:48.099Z,40.43
2019-01-25T10:53:17.416Z,39.30
2019-01-25T10:55:46.732Z,38.60
2019-01-25T10:58:16.066Z,38.77
2019-01-25T11:00:45.362Z,39.00
2019-01-25T11:03:14.683Z,36.47
2019-01-25T11:05:43.970Z,37.63
2019-01-25T11:08:13.512Z,40.13
2019-01-25T11:10:43.016Z,36.00
2019-01-25T11:13:12.502Z,39.57
2019-01-25T11:15:41.905Z,39.50
2019-01-25T11:18:11.188Z,37.93
2019-01-25T11:20:40.679Z,37.57
2019-01-25T11:23:10.569Z,37.00
2019-01-25T11:25:40.642Z,35.93
2019-01-25T11:28:10.060Z,36.10
2019-01-25T11:30:39.356Z,35.63
2019-01-25T11:33:09.341Z,39.87
2019-01-25T11:35:38.791Z,37.70
2019-01-25T11:38:08.124Z,35.43
2019-01-25T11:40:40.420Z,39.33
2019-01-25T11:43:09.863Z,40.20
2019-01-25T11:45:39.344Z,37.53
2019-01-25T11:48:12.332Z,38.80
2019-01-25T11:50:41.815Z,39.63
2019-01-25T11:53:11.121Z,37.00
2019-01-25T11:55:40.548Z,37.93
2019-01-25T11:58:09.873Z,39.47
2019-01-25T12:00:42.346Z,40.53
2019-01-25T12:03:11.764Z,39.07
2019-01-25T12:05:41.125Z,39.37
2019-01-25T12:08:11.416Z,40.90
2019-01-25T12:10:40.763Z,39.40
2019-01-25T12:13:16.013Z,39.23
2019-01-25T12:15:41.282Z,37.47
2019-01-25T12:18:11.386Z,38.00
2019-01-25T12:20:40.859Z,39.03
2019-01-25T12:23:11.973Z,37.07
2019-01-25T12:25:41.368Z,39.30
2019-01-25T12:28:10.932Z,38.90
2019-01-25T12:30:40.778Z,37.40
2019-01-25T12:33:11.140Z,37.40
2019-01-25T12:35:42.745Z,38.80
2019-01-25T12:38:12.702Z,39.00
2019-01-25T12:40:42.761Z,42.63
2019-01-25T12:43:12.788Z,43.20
2019-01-25T12:45:42.176Z,39.67
2019-01-25T12:48:11.712Z,42.87
2019-01-25T12:50:48.857Z,38.00
2019-01-25T12:53:15.551Z,38.37
2019-01-25T12:55:45.036Z,37.70
2019-01-25T12:58:14.446Z,37.67
2019-01-25T13:00:43.767Z,38.63
2019-01-25T13:03:13.506Z,35.60
2019-01-25T13:05:43.332Z,36.87
2019-01-25T13:08:13.428Z,35.73
2019-01-25T13:10:42.813Z,36.80
2019-01-25T13:13:12.152Z,37.57
2019-01-25T13:15:41.510Z,36.90
2019-01-25T13:18:10.896Z,35.67
2019-01-25T13:20:40.260Z,37.33
2019-01-25T13:23:09.654Z,36.47
2019-01-25T13:25:39.056Z,34.43
2019-01-25T13:28:08.423Z,34.67
2019-01-25T13:30:37.849Z,34.57
2019-01-25T13:33:07.584Z,33.77
2019-01-25T13:35:36.955Z,35.43
2019-01-25T13:38:06.352Z,34.17
2019-01-25T13:40:35.680Z,34.40
2019-01-25T13:43:05.453Z,33.83
2019-01-25T13:45:34.789Z,34.13
2019-01-25T13:48:05.148Z,33.73
2019-01-25T13:50:34.658Z,32.50
2019-01-25T13:53:03.348Z,33.90
2019-01-25T13:55:32.695Z,32.33
2019-01-25T13:58:02.035Z,33.70
2019-01-25T14:00:33.490Z,33.23
2019-01-25T14:03:03.000Z,33.20
2019-01-25T14:05:32.323Z,30.73
2019-01-25T14:08:01.704Z,33.50
2019-01-25T14:10:33.176Z,33.90
2019-01-25T14:13:02.559Z,32.50
2019-01-25T14:15:32.809Z,32.17
2019-01-25T14:18:02.246Z,30.93
2019-01-25T14:20:32.301Z,30.13
2019-01-25T14:23:01.962Z,31.50
2019-01-25T14:25:31.456Z,34.57
2019-01-25T14:28:00.777Z,32.47
2019-01-25T14:30:35.556Z,32.27
2019-01-25T14:33:06.065Z,31.47
2019-01-25T14:35:34.797Z,29.57
2019-01-25T14:38:06.191Z,30.53
2019-01-25T14:40:35.543Z,28.53
2019-01-25T14:43:05.004Z,32.43
2019-01-25T14:45:34.342Z,32.17
2019-01-25T14:48:03.723Z,33.80
2019-01-25T14:50:33.072Z,33.17
2019-01-25T14:53:02.936Z,29.57
2019-01-25T14:55:31.644Z,27.90
2019-01-25T14:58:01.127Z,31.77
2019-01-25T15:00:30.588Z,29.23
2019-01-25T15:03:00.162Z,32.03
2019-01-25T15:05:28.940Z,29.43
2019-01-25T15:07:58.264Z,29.03
2019-01-25T15:10:27.648Z,28.70
2019-01-25T15:12:58.848Z,31.80
2019-01-25T15:15:29.260Z,31.57
2019-01-25T15:17:58.552Z,29.77
2019-01-25T15:20:28.468Z,30.60
2019-01-25T15:22:58.392Z,29.93
2019-01-25T15:25:27.937Z,30.87
2019-01-25T15:27:58.953Z,32.27
2019-01-25T15:30:33.368Z,31.30
2019-01-25T15:33:02.822Z,33.00
2019-01-25T15:35:32.169Z,32.20
2019-01-25T15:38:01.524Z,32.97
2019-01-25T15:40:30.888Z,30.23
2019-01-25T15:43:00.222Z,32.53
2019-01-25T15:45:29.616Z,32.13
2019-01-25T15:47:59.036Z,32.23
2019-01-25T15:50:30.976Z,33.63
2019-01-25T15:53:00.311Z,31.63
2019-01-25T15:55:29.095Z,31.33
2019-01-25T15:57:58.418Z,30.67
2019-01-25T16:00:29.664Z,30.53
2019-01-25T16:02:59.380Z,30.60
2019-01-25T16:05:28.700Z,30.80
2019-01-25T16:07:57.997Z,30.07
2019-01-25T16:10:27.690Z,28.03
2019-01-25T16:12:57.089Z,29.73
2019-01-25T16:15:28.134Z,29.60
2019-01-25T16:17:58.066Z,28.27
2019-01-25T16:20:27.017Z,28.70
2019-01-25T16:22:56.736Z,26.60
2019-01-25T16:25:34.640Z,28.30
2019-01-25T16:28:03.999Z,29.00
2019-01-25T16:30:35.664Z,30.37
2019-01-25T16:33:05.015Z,27.43
2019-01-25T16:35:34.463Z,26.57
2019-01-25T16:38:04.684Z,27.40
2019-01-25T16:40:36.097Z,26.17
2019-01-25T16:43:08.092Z,28.37
2019-01-25T16:45:38.424Z,28.10
2019-01-25T16:48:08.348Z,30.13
2019-01-25T16:50:39.788Z,26.50
2019-01-25T16:53:11.677Z,28.63
2019-01-25T16:55:41.002Z,28.40
2019-01-25T16:58:10.325Z,27.67
2019-01-25T17:00:41.980Z,29.80
2019-01-25T17:03:11.756Z,30.60
2019-01-25T17:05:41.378Z,28.80
2019-01-25T17:08:11.118Z,29.23
2019-01-25T17:10:41.184Z,29.67
2019-01-25T17:13:11.265Z,27.27
2019-01-25T17:15:40.658Z,29.03
2019-01-25T17:18:12.036Z,29.10
2019-01-25T17:20:41.848Z,30.90
2019-01-25T17:23:11.232Z,26.23
2019-01-25T17:25:40.687Z,25.43
2019-01-25T17:28:11.266Z,28.07
2019-01-25T17:30:42.858Z,25.93
2019-01-25T17:33:12.652Z,26.20
2019-01-25T17:35:42.024Z,25.27
2019-01-25T17:38:12.418Z,25.87
2019-01-25T17:40:46.699Z,27.57
2019-01-25T17:43:15.724Z,26.67
2019-01-25T17:45:45.184Z,26.40
2019-01-25T17:48:14.590Z,27.77
2019-01-25T17:50:43.868Z,28.37
2019-01-25T17:53:13.143Z,29.47
2019-01-25T17:55:42.481Z,29.60
2019-01-25T17:58:11.796Z,29.77
2019-01-25T18:00:59.292Z,30.73
2019-01-25T18:03:28.584Z,31.07
2019-01-25T18:05:57.944Z,32.57
2019-01-25T18:08:27.280Z,32.13
2019-01-25T18:10:56.611Z,33.07
2019-01-25T18:13:28.665Z,32.80
2019-01-25T18:15:58.132Z,30.83
2019-01-25T18:18:27.435Z,30.30
2019-01-25T18:20:56.735Z,30.63
2019-01-25T18:23:26.521Z,30.60
2019-01-25T18:26:17.504Z,31.17
2019-01-25T18:29:10.365Z,32.80
2019-01-25T18:31:39.707Z,37.47
2019-01-25T18:34:09.052Z,32.03
2019-01-25T18:36:38.940Z,34.23
2019-01-25T18:39:09.881Z,32.50
2019-01-25T18:41:39.268Z,31.97
2019-01-25T18:44:08.043Z,29.33
2019-01-25T18:46:38.374Z,30.30
2019-01-25T18:49:07.724Z,33.43
2019-01-25T18:51:37.244Z,30.80
2019-01-25T18:54:06.680Z,31.37
2019-01-25T18:56:36.656Z,31.90
2019-01-25T18:59:06.064Z,32.00
2019-01-25T19:01:38.176Z,32.43
2019-01-25T19:04:07.592Z,33.23
2019-01-25T19:06:36.333Z,31.70
2019-01-25T19:09:09.104Z,32.63
2019-01-25T19:11:38.775Z,33.27
2019-01-25T19:14:08.284Z,31.67
2019-01-25T19:16:37.702Z,34.57
2019-01-25T19:19:07.058Z,34.23
2019-01-25T19:21:36.470Z,31.57
2019-01-25T19:24:08.290Z,34.60
2019-01-25T19:26:37.652Z,33.73
2019-01-25T19:29:07.101Z,33.80
2019-01-25T19:31:36.628Z,34.77
2019-01-25T19:34:06.445Z,34.43
2019-01-25T19:36:35.941Z,34.67
2019-01-25T19:39:11.153Z,33.87
2019-01-25T19:41:40.869Z,33.87
2019-01-25T19:44:10.984Z,35.17
2019-01-25T19:46:40.784Z,34.63
2019-01-25T19:49:10.176Z,35.97
2019-01-25T19:51:39.551Z,33.47
2019-01-25T19:54:09.232Z,32.97
2019-01-25T19:56:38.569Z,30.27
2019-01-25T19:59:09.156Z,32.07
2019-01-25T20:01:39.516Z,35.97
2019-01-25T20:04:09.384Z,33.57
2019-01-25T20:06:38.715Z,32.90
2019-01-25T20:09:11.762Z,32.33
2019-01-25T20:11:41.250Z,31.93
2019-01-25T20:14:10.778Z,34.93
2019-01-25T20:16:41.217Z,32.07
2019-01-25T20:19:10.727Z,31.83
2019-01-25T20:21:40.273Z,32.03
2019-01-25T20:24:09.710Z,34.10
2019-01-25T20:26:38.628Z,32.00
2019-01-25T20:29:08.036Z,31.77
2019-01-25T20:31:37.396Z,30.37
2019-01-25T20:34:06.980Z,29.00
2019-01-25T20:36:36.416Z,31.40
2019-01-25T20:39:08.516Z,31.53
2019-01-25T20:41:38.156Z,30.43
2019-01-25T20:44:07.634Z,27.93
2019-01-25T20:46:36.397Z,28.23
2019-01-25T20:49:06.879Z,28.23
2019-01-25T20:51:36.496Z,27.50
2019-01-25T20:54:06.111Z,26.07
2019-01-25T20:56:35.103Z,25.93
2019-01-25T20:59:04.572Z,25.07
2019-01-25T21:01:34.210Z,25.60
2019-01-25T21:04:02.959Z,25.07
2019-01-25T21:06:32.537Z,25.00
2019-01-25T21:09:01.376Z,23.90
2019-01-25T21:11:30.865Z,22.53
2019-01-25T21:14:00.325Z,22.80
2019-01-25T21:16:29.149Z,22.57
2019-01-25T21:18:58.823Z,22.83
2019-01-25T21:21:28.600Z,25.23
2019-01-25T21:23:57.536Z,23.47
2019-01-25T21:26:26.417Z,22.90
2019-01-25T21:28:55.972Z,23.60
2019-01-25T21:31:25.004Z,22.07
2019-01-25T21:33:54.623Z,22.60
2019-01-25T21:36:24.021Z,22.07
2019-01-25T21:38:53.468Z,21.60
2019-01-25T21:41:22.251Z,21.87
2019-01-25T21:43:51.006Z,22.50
2019-01-25T21:46:21.453Z,22.50
2019-01-25T21:48:50.828Z,23.83
2019-01-25T21:51:19.555Z,22.57
2019-01-25T21:53:49.512Z,24.03
2019-01-25T21:56:18.940Z,20.63
2019-01-25T21:58:48.300Z,23.27
2019-01-25T22:01:17.068Z,21.80
2019-01-25T22:03:45.869Z,22.03
2019-01-25T22:06:15.254Z,23.63
2019-01-25T22:08:44.728Z,23.10
2019-01-25T22:11:14.094Z,21.73
2019-01-25T22:13:43.862Z,22.57
2019-01-25T22:16:13.249Z,23.30
2019-01-25T22:18:42.071Z,21.73
2019-01-25T22:21:11.392Z,22.50
2019-01-25T22:23:41.765Z,20.93
2019-01-25T22:26:10.587Z,19.43
2019-01-25T22:28:39.952Z,22.80
2019-01-25T22:31:09.285Z,22.60
2019-01-25T22:33:38.675Z,22.90
2019-01-25T22:36:07.992Z,22.13
2019-01-25T22:38:37.405Z,22.23
2019-01-25T22:41:06.805Z,23.67
2019-01-25T22:43:35.520Z,22.93
2019-01-25T22:46:05.250Z,23.37
2019-01-25T22:48:34.533Z,22.00
2019-01-25T22:51:03.864Z,22.60
2019-01-25T22:53:33.182Z,20.23
2019-01-25T22:56:01.920Z,21.63
2019-01-25T22:58:31.200Z,22.30
2019-01-25T23:01:28.408Z,20.43
2019-01-25T23:04:54.128Z,21.50
2019-01-25T23:07:28.824Z,22.03
2019-01-25T23:10:04.779Z,20.50
2019-01-25T23:12:34.108Z,19.90
2019-01-25T23:15:03.416Z,20.90
2019-01-25T23:17:32.999Z,20.33
2019-01-25T23:20:02.342Z,20.40
2019-01-25T23:22:31.087Z,21.40
2019-01-25T23:25:00.405Z,20.43
2019-01-25T23:27:29.735Z,20.00
2019-01-25T23:29:58.459Z,20.63
2019-01-25T23:32:27.791Z,21.20
2019-01-25T23:34:58.072Z,18.47
2019-01-25T23:37:27.406Z,20.87
2019-01-25T23:39:56.728Z,19.93
2019-01-25T23:42:26.027Z,19.10
2019-01-25T23:44:55.347Z,20.53
2019-01-25T23:47:24.061Z,20.23
2019-01-25T23:49:53.384Z,18.80
2019-01-25T23:52:22.069Z,18.63
2019-01-25T23:54:51.389Z,20.27
2019-01-25T23:57:20.691Z,19.80
2019-01-25T23:59:50.020Z,17.80
